Weather at Beamsville/Panterra Heliport

Public forecast

Using degrees Celsius for public forecast. Weather courtesy of forecast.io.

Closest aviation weather report (METAR) to Beamsville/Panterra Heliport

Closest report is Niagara District Airport, 13.2 nm (24.5 km) E.

2024/05/26 17:00 (retrieved 55 minutes ago)

CYSN 261700Z 03006KT 300V050 6SM BR SCT010 20/17 A2993 RMK SC4 SLP137 DENSITY ALT 1000FT

Closest aviation forecast (TAF) to Beamsville/Panterra Heliport

Closest forecast is Niagara District Airport, 13.2 nm (24.5 km) E.

2024/05/26 15:12 Ammendment (retrieved 3 hours ago)

TAF AMD TAF AMD CYSN 261510Z 2615/2701 01008KT 6SM BR BKN010 TEMPO 2615/2617 2SM BR OVC003 FM261700 02010KT P6SM FEW020 SCT240 BECMG 2622/2624 06012KT RMK NXT FCST BY 262000Z